Home > Products > Valid Products > MTR

000
SAUS42 KCHS 031110 COR
MTRNBC
SPECI KNBC 031106Z AUTO 07003KT 10SM BKN015 OVC032 13/12 A3025 RMK
AO2 T01280117





000
SAUS42 KCHS 031101 COR
MTRNBC
METAR KNBC 031056Z AUTO 05004KT 8SM SCT015 BKN032 OVC055 13/12 A3024
RMK AO2 SLP242 T01280117





000
SAUS42 KCHS 031001 COR
MTRNBC
METAR KNBC 030956Z AUTO 06003KT 8SM BKN034 OVC055 13/12 A3023 RMK
AO2 SLP236 T01280117 $





000
SAUS42 KCHS 031001 COR
MTRNBC
METAR KNBC 030956Z AUTO 06003KT 8SM BKN034 OVC055 13/12 A3023 RMK
AO2 SLP236 T01280117 $





000
SAUS42 KCHS 030901 COR
MTRNBC
METAR KNBC 030856Z AUTO 03004KT 6SM BR FEW010 BKN060 BKN095 13/12
A3022 RMK AO2 SLP235 T01280117 55005 $





000
SAUS42 KCHS 030853 COR
MTRNBC
SPECI KNBC 030848Z AUTO 05004KT 7SM SCT010 BKN060 BKN120 13/12 A3022
RMK AO2 T01280117 $





000
SAUS42 KCHS 030853 COR
MTRNBC
SPECI KNBC 030848Z AUTO 05004KT 7SM SCT010 BKN060 BKN120 13/12 A3022
RMK AO2 T01280117 $





000
SAUS42 KCHS 030840 COR
MTRNBC
SPECI KNBC 030835Z AUTO 05004KT 6SM BR BKN010 OVC060 13/12 A3022 RMK
AO2 T01280117 $





000
SAUS42 KCHS 030840 COR
MTRNBC
SPECI KNBC 030835Z AUTO 05004KT 6SM BR BKN010 OVC060 13/12 A3022 RMK
AO2 T01280117 $





000
SAUS42 KCHS 030801 COR
MTRNBC
METAR KNBC 030756Z AUTO 00000KT 7SM OVC006 13/13 A3021 RMK AO2 CIG
004V009 SLP232 T01330128 $





000
SAUS42 KCHS 030801 COR
MTRNBC
METAR KNBC 030756Z AUTO 00000KT 7SM OVC006 13/13 A3021 RMK AO2 CIG
004V009 SLP232 T01330128 $





000
SAUS42 KCHS 030735
MTRNBC
SPECI KNBC 030734Z AUTO 06003KT 6SM BR OVC004 13/13 A3023 RMK AO2
T01330128 $





000
SAUS42 KCHS 030735
MTRNBC
SPECI KNBC 030734Z AUTO 06003KT 6SM BR OVC004 13/13 A3023 RMK AO2
T01330128 $





000
SAUS42 KCHS 030714 COR
MTRNBC
SPECI KNBC 030709Z AUTO 00000KT 3SM BR OVC002 13/13 A3022 RMK AO2
T01330128 $





000
SAUS42 KCHS 030714 COR
MTRNBC
SPECI KNBC 030709Z AUTO 00000KT 3SM BR OVC002 13/13 A3022 RMK AO2
T01330128 $





000
SAUS42 KCHS 030708 COR
MTRNBC
SPECI KNBC 030703Z AUTO 00000KT 1 1/4SM BR OVC002 13/13 A3022 RMK
AO2 T01280128 $





000
SAUS42 KCHS 030708 COR
MTRNBC
SPECI KNBC 030703Z AUTO 00000KT 1 1/4SM BR OVC002 13/13 A3022 RMK
AO2 T01280128 $





000
SAUS42 KCHS 030700 COR
MTRNBC
METAR KNBC 030656Z AUTO 00000KT 3/4SM BR VV002 13/13 A3022 RMK AO2
SLP234 T01280128 $





000
SAUS42 KCHS 030700 COR
MTRNBC
METAR KNBC 030656Z AUTO 00000KT 3/4SM BR VV002 13/13 A3022 RMK AO2
SLP234 T01280128 $





000
SAUS42 KCHS 030648 COR
MTRNBC
SPECI KNBC 030643Z AUTO 00000KT 3/4SM BR VV002 13/13 A3022 RMK AO2
T01280128 $





000
SAUS42 KCHS 030648 COR
MTRNBC
SPECI KNBC 030643Z AUTO 00000KT 3/4SM BR VV002 13/13 A3022 RMK AO2
T01280128 $





000
SAUS42 KCHS 030630 COR
MTRNBC
SPECI KNBC 030625Z AUTO 09003KT 1/2SM FG VV002 13/13 A3022 RMK AO2
T01280128 $





000
SAUS42 KCHS 030630 COR
MTRNBC
SPECI KNBC 030625Z AUTO 09003KT 1/2SM FG VV002 13/13 A3022 RMK AO2
T01280128 $





000
SAUS42 KCHS 030618 COR
MTRNBC
SPECI KNBC 030613Z AUTO 10006KT 3/4SM BR VV002 13/12 A3023 RMK AO2
T01280122 $





000
SAUS42 KCHS 030618 COR
MTRNBC
SPECI KNBC 030613Z AUTO 10006KT 3/4SM BR VV002 13/12 A3023 RMK AO2
T01280122 $





000
SAUS42 KCHS 030611
MTRNBC
SPECI KNBC 030608Z AUTO 11006KT 1 1/2SM BR OVC002 13/12 A3023 RMK
AO2 T01280122 $





000
SAUS42 KCHS 030611
MTRNBC
SPECI KNBC 030608Z AUTO 11006KT 1 1/2SM BR OVC002 13/12 A3023 RMK
AO2 T01280122 $





000
SAUS42 KCHS 030559
MTRNBC
METAR KNBC 030556Z AUTO 12005KT 7SM OVC003 13/12 A3024 RMK AO2 CIG
002V005 SLP240 T01280122 10150 20122 56012 $





000
SAUS42 KCHS 030559
MTRNBC
METAR KNBC 030556Z AUTO 12005KT 7SM OVC003 13/12 A3024 RMK AO2 CIG
002V005 SLP240 T01280122 10150 20122 56012 $





000
SAUS42 KCHS 030552 COR
MTRNBC
SPECI KNBC 030547Z 11006KT 9SM BKN005 13/12 A3024 RMK AO2 T01280117
$





000
SAUS42 KCHS 030552 COR
MTRNBC
SPECI KNBC 030547Z 11006KT 9SM BKN005 13/12 A3024 RMK AO2 T01280117
$





000
SAUS42 KCHS 030543 COR
MTRNBC
SPECI KNBC 030538Z 12003KT 10SM SCT005 BKN055 13/12 A3025 RMK AO2
T01280117 $





000
SAUS42 KCHS 030543 COR
MTRNBC
SPECI KNBC 030538Z 12003KT 10SM SCT005 BKN055 13/12 A3025 RMK AO2
T01280117 $





000
SAUS42 KCHS 030501 COR
MTRNBC
METAR KNBC 030456Z 10004KT 10SM BKN055 13/12 A3026 RMK AO2 SLP246
T01330117 402280072 $





000
SAUS42 KCHS 030501 COR
MTRNBC
METAR KNBC 030456Z 10004KT 10SM BKN055 13/12 A3026 RMK AO2 SLP246
T01330117 402280072 $





000
SAUS42 KCHS 030424 COR
MTRNBC
SPECI KNBC 030419Z 08006KT 8SM SCT004 BKN042 OVC060 13/12 A3027 RMK
AO2 T01280117 $





000
SAUS42 KCHS 030424 COR
MTRNBC
SPECI KNBC 030419Z 08006KT 8SM SCT004 BKN042 OVC060 13/12 A3027 RMK
AO2 T01280117 $





000
SAUS42 KCHS 030417 COR
MTRNBC
SPECI KNBC 030412Z 08007KT 8SM BKN005 BKN040 OVC060 13/12 A3027 RMK
AO2 T01280117 $





000
SAUS42 KCHS 030417 COR
MTRNBC
SPECI KNBC 030412Z 08007KT 8SM BKN005 BKN040 OVC060 13/12 A3027 RMK
AO2 T01280117 $





000
SAUS42 KCHS 030409 COR
MTRNBC
SPECI KNBC 030404Z 07007KT 9SM SCT005 BKN040 OVC060 13/12 A3028 RMK
AO2 T01280117 $





000
SAUS42 KCHS 030409 COR
MTRNBC
SPECI KNBC 030404Z 07007KT 9SM SCT005 BKN040 OVC060 13/12 A3028 RMK
AO2 T01280117 $





000
SAUS42 KCHS 030401 COR
MTRNBC
METAR KNBC 030356Z 08008KT 9SM SCT040 OVC060 13/12 A3028 RMK AO2
SLP252 T01280117 $





000
SAUS42 KCHS 030335
MTRNBC
SPECI KNBC 030333Z 05007KT 020V080 9SM FEW006 BKN060 13/12 A3026 RMK
AO2 T01280117 $





000
SAUS42 KCHS 030301 COR
MTRNBC
METAR KNBC 030256Z 19003KT 7SM FEW041 13/12 A3025 RMK AO2 SLP243
T01280117 51013 $





000
SAUS42 KCHS 030301 COR
MTRNBC
METAR KNBC 030256Z 19003KT 7SM FEW041 13/12 A3025 RMK AO2 SLP243
T01280117 51013 $





000
SAUS42 KCHS 030201 COR
MTRNBC
METAR KNBC 030156Z 16003KT 9SM BKN250 14/12 A3024 RMK AO2 SLP241
T01390122 $





000
SAUS42 KCHS 030101 COR
MTRNBC
METAR KNBC 030056Z 17003KT 10SM SCT100 BKN250 14/13 A3023 RMK AO2
SLP237 T01390128 $





000
SAUS42 KCHS 030101 COR
MTRNBC
METAR KNBC 030056Z 17003KT 10SM SCT100 BKN250 14/13 A3023 RMK AO2
SLP237 T01390128 $





000
SAUS42 KCHS 030001 COR
MTRNBC
METAR KNBC 022356Z 17004KT 10SM FEW100 BKN250 15/13 A3021 RMK AO2
SLP231 T01500128 10228 20150 53004 $





000
SAUS42 KCHS 030001 COR
MTRNBC
METAR KNBC 022356Z 17004KT 10SM FEW100 BKN250 15/13 A3021 RMK AO2
SLP231 T01500128 10228 20150 53004 $





000
SAUS42 KCHS 022301 COR
MTRNBC
METAR KNBC 022256Z 15005KT 10SM BKN250 17/13 A3020 RMK AO2 SLP226
T01720133 $





000
SAUS42 KCHS 022301 COR
MTRNBC
METAR KNBC 022256Z 15005KT 10SM BKN250 17/13 A3020 RMK AO2 SLP226
T01720133 $





000
SAUS42 KCHS 022201 COR
MTRNBC
METAR KNBC 022156Z 27007KT 10SM SCT250 23/15 A3019 RMK AO2 SLP223
T02280150 $





000
SAUS42 KCHS 022201 COR
MTRNBC
METAR KNBC 022156Z 27007KT 10SM SCT250 23/15 A3019 RMK AO2 SLP223
T02280150 $





000
SAUS42 KCHS 022101 COR
MTRNBC
METAR KNBC 022056Z 28009KT 10SM SCT250 23/15 A3020 RMK AO2 SLP226
T02280150 56024 $





000
SAUS42 KCHS 022101 COR
MTRNBC
METAR KNBC 022056Z 28009KT 10SM SCT250 23/15 A3020 RMK AO2 SLP226
T02280150 56024 $





000
SAUS42 KCHS 022001 COR
MTRNBC
METAR KNBC 021956Z 26008KT 10SM FEW030 SCT250 21/14 A3021 RMK AO2
SLP230 T02110144





000
SAUS42 KCHS 022001 COR
MTRNBC
METAR KNBC 021956Z 26008KT 10SM FEW030 SCT250 21/14 A3021 RMK AO2
SLP230 T02110144





000
SAUS42 KCHS 021901 COR
MTRNBC
METAR KNBC 021856Z VRB06KT 7SM FEW014 BKN250 19/14 A3023 RMK AO2
SLP237 T01890139





000
SAUS42 KCHS 021813 COR
MTRNBC
SPECI KNBC 021808Z VRB06KT 7SM SCT009 SCT100 BKN250 17/13 A3026 RMK
AO2 T01670133





000
SAUS42 KCHS 021813 COR
MTRNBC
SPECI KNBC 021808Z VRB06KT 7SM SCT009 SCT100 BKN250 17/13 A3026 RMK
AO2 T01670133





000
SAUS42 KCHS 021801
MTRNBC
METAR KNBC 021756Z COR 28010KT 7SM BKN007 16/13 A3027 RMK AO2 SLP250
T01560128 10156 20083 58017





000
SAUS42 KCHS 021801
MTRNBC
METAR KNBC 021756Z COR 28010KT 7SM BKN007 16/13 A3027 RMK AO2 SLP250
T01560128 10156 20083 58017





000
SAUS42 KCHS 021713 COR
MTRNBC
SPECI KNBC 021708Z 32008KT 10SM OVC006 14/12 A3030 RMK AO2 T01390117





000
SAUS42 KCHS 021701 COR
MTRNBC
METAR KNBC 021656Z 28006KT 10SM OVC005 14/12 A3031 RMK AO2 SLP263
T01390117





000
SAUS42 KCHS 021646 COR
MTRNBC
SPECI KNBC 021641Z 27006KT 10SM OVC005 13/12 A3031 RMK AO2 T01330117





000
SAUS42 KCHS 021629 COR
MTRNBC
SPECI KNBC 021624Z 26005KT 10SM OVC004 13/12 A3031 RMK AO2 T01280117





000
SAUS42 KCHS 021601 COR
MTRNBC
METAR KNBC 021556Z VRB04KT 4SM BR OVC003 12/11 A3032 RMK AO2 SLP266
T01170111





000
SAUS42 KCHS 021601 COR
MTRNBC
METAR KNBC 021556Z VRB04KT 4SM BR OVC003 12/11 A3032 RMK AO2 SLP266
T01170111





000
SAUS42 KCHS 021553 COR
MTRNBC
SPECI KNBC 021548Z 28004KT 2SM BR OVC003 11/11 A3032 RMK AO2
T01110106





000
SAUS42 KCHS 021537
MTRNBC
SPECI KNBC 021537Z 27005KT 1 1/2SM BR OVC002 11/10 A3032 RMK AO2 SFC
VIS 2 T01110100





000
SAUS42 KCHS 021533 COR
MTRNBC
SPECI KNBC 021528Z 28007KT 3SM BR OVC002 11/10 A3032 RMK AO2
T01060100





000
SAUS42 KCHS 021501 COR
MTRNBC
METAR KNBC 021456Z 27007KT 2SM BR OVC002 11/10 A3032 RMK AO2 SLP268
T01060100 51012





000
SAUS42 KCHS 021501 COR
MTRNBC
METAR KNBC 021456Z 27007KT 2SM BR OVC002 11/10 A3032 RMK AO2 SLP268
T01060100 51012





000
SAUS42 KCHS 021440 COR
MTRNBC
SPECI KNBC 021436Z 27003KT 2SM BR OVC002 11/10 A3032 RMK AO2
T01060100





000
SAUS42 KCHS 021435
MTRNBC
SPECI KNBC 021432Z 27004KT 1 1/4SM BR OVC002 11/10 A3032 RMK AO2
T01060100





000
SAUS42 KCHS 021435
MTRNBC
SPECI KNBC 021432Z 27004KT 1 1/4SM BR OVC002 11/10 A3032 RMK AO2
T01060100





000
SAUS42 KCHS 021424 COR
MTRNBC
SPECI KNBC 021419Z 28005KT 3/4SM BR OVC002 10/10 A3032 RMK AO2
T01000100





000
SAUS42 KCHS 021416 COR
MTRNBC
SPECI KNBC 021411Z 27003KT 1 1/2SM BR OVC002 10/10 A3032 RMK AO2
T01000100





000
SAUS42 KCHS 021416 COR
MTRNBC
SPECI KNBC 021411Z 27003KT 1 1/2SM BR OVC002 10/10 A3032 RMK AO2
T01000100





000
SAUS42 KCHS 021408 COR
MTRNBC
SPECI KNBC 021403Z 25005KT 1SM BR OVC002 10/09 A3032 RMK AO2
T01000094





000
SAUS42 KCHS 021401 COR
MTRNBC
METAR KNBC 021356Z 26003KT 1/2SM FG VV002 10/09 A3032 RMK AO2 SLP266
T01000094





000
SAUS42 KCHS 021350 COR
MTRNBC
SPECI KNBC 021346Z 24003KT 1/2SM FG OVC002 09/09 A3032 RMK AO2
T00940094





000
SAUS42 KCHS 021350 COR
MTRNBC
SPECI KNBC 021346Z 24003KT 1/2SM FG OVC002 09/09 A3032 RMK AO2
T00940094





000
SAUS42 KCHS 021342 COR
MTRNBC
SPECI KNBC 021337Z 00000KT 3SM BR OVC003 09/09 A3032 RMK AO2
T00940089





000
SAUS42 KCHS 021312 COR
MTRNBC
SPECI KNBC 021307Z 23005KT 2 1/2SM BR OVC002 09/08 A3031 RMK AO2
T00890083





000
SAUS42 KCHS 021312 COR
MTRNBC
SPECI KNBC 021307Z 23005KT 2 1/2SM BR OVC002 09/08 A3031 RMK AO2
T00890083





000
SAUS42 KCHS 021301
MTRNBC
SPECI KNBC 021300Z 22004KT 1 3/4SM BR OVC002 09/08 A3031 RMK AO2
T00890083





000
SAUS42 KCHS 021201 COR
MTRNBC
METAR KNBC 021156Z 19005KT 3/4SM BR VV002 08/08 A3029 RMK AO2 SLP257
70017 T00830083 10083 20072 58006





000
SAUS42 KCHS 021201 COR
MTRNBC
METAR KNBC 021156Z 19005KT 3/4SM BR VV002 08/08 A3029 RMK AO2 SLP257
70017 T00830083 10083 20072 58006





000
SAUS42 KCHS 021129 COR
MTRNBC
SPECI KNBC 021124Z 25005KT 3/4SM BR VV002 08/08 A3031 RMK AO2 FIRST
T00830078 $





000
SAUS42 KCHS 021109 COR
MTRNBC
SPECI KNBC 021104Z AUTO 22003KT 3/4SM BR VV002 08/08 A3030 RMK AO2
T00830078 $





000
SAUS42 KCHS 021101 COR
MTRNBC
METAR KNBC 021056Z AUTO 21003KT 1SM BR VV002 08/07 A3030 RMK AO2
SLP259 T00830072 $





000
SAUS42 KCHS 021101 COR
MTRNBC
METAR KNBC 021056Z AUTO 21003KT 1SM BR VV002 08/07 A3030 RMK AO2
SLP259 T00830072 $





000
SAUS42 KCHS 021042 COR
MTRNBC
SPECI KNBC 021037Z AUTO 17003KT 1SM BR VV002 08/08 A3030 RMK AO2
T00830078 $





000
SAUS42 KCHS 021001 COR
MTRNBC
METAR KNBC 020956Z AUTO 20003KT 3/4SM BR VV002 08/08 A3030 RMK AO2
SLP261 T00780078 $





000
SAUS42 KCHS 021001 COR
MTRNBC
METAR KNBC 020956Z AUTO 20003KT 3/4SM BR VV002 08/08 A3030 RMK AO2
SLP261 T00780078 $





000
SAUS42 KCHS 020901 COR
MTRNBC
METAR KNBC 020856Z AUTO 00000KT 1/2SM FG VV002 08/07 A3031 RMK AO2
SLP262 T00780067 57016 $





000
SAUS42 KCHS 020901 COR
MTRNBC
METAR KNBC 020856Z AUTO 00000KT 1/2SM FG VV002 08/07 A3031 RMK AO2
SLP262 T00780067 57016 $





000
SAUS42 KCHS 020828 COR
MTRNBC
SPECI KNBC 020823Z AUTO 29003KT 1/2SM FG VV002 08/07 A3032 RMK AO2
T00780072 $





000
SAUS42 KCHS 020828 COR
MTRNBC
SPECI KNBC 020823Z AUTO 29003KT 1/2SM FG VV002 08/07 A3032 RMK AO2
T00780072 $





000
SAUS42 KCHS 020819 COR
MTRNBC
SPECI KNBC 020814Z AUTO 29004KT 3/4SM BR VV002 08/07 A3032 RMK AO2
T00780067 $





000
SAUS42 KCHS 020809 COR
MTRNBC
SPECI KNBC 020804Z AUTO 00000KT 1SM BR OVC002 08/07 A3031 RMK AO2
T00780072 $





000
SAUS42 KCHS 020800 COR
MTRNBC
METAR KNBC 020756Z AUTO 00000KT 1 3/4SM BR OVC002 08/07 A3032 RMK
AO2 SLP267 T00780067 $





000
SAUS42 KCHS 020800 COR
MTRNBC
METAR KNBC 020756Z AUTO 00000KT 1 3/4SM BR OVC002 08/07 A3032 RMK
AO2 SLP267 T00780067 $





000
SAUS42 KCHS 020744 COR
MTRNBC
SPECI KNBC 020739Z AUTO 00000KT 4SM BR OVC002 08/07 A3033 RMK AO2
T00780072 $





000
SAUS42 KCHS 020722 COR
MTRNBC
SPECI KNBC 020717Z AUTO 32006KT 3SM BR OVC003 08/07 A3034 RMK AO2
T00780067 $





000
SAUS42 KCHS 020709 COR
MTRNBC
SPECI KNBC 020704Z AUTO 00000KT 2SM BR OVC002 08/07 A3033 RMK AO2
T00780072 $





000
SAUS42 KCHS 020700 COR
MTRNBC
METAR KNBC 020656Z AUTO 18003KT 1 1/4SM BR OVC002 08/07 A3034 RMK
AO2 SLP273 T00780072 $





000
SAUS42 KCHS 020700 COR
MTRNBC
METAR KNBC 020656Z AUTO 18003KT 1 1/4SM BR OVC002 08/07 A3034 RMK
AO2 SLP273 T00780072 $





000
SAUS42 KCHS 020654 COR
MTRNBC
SPECI KNBC 020649Z AUTO 18003KT 1SM BR VV002 08/07 A3034 RMK AO2
T00780072 $





000
SAUS42 KCHS 020654 COR
MTRNBC
SPECI KNBC 020649Z AUTO 18003KT 1SM BR VV002 08/07 A3034 RMK AO2
T00780072 $





000
SAUS42 KCHS 020634 COR
MTRNBC
SPECI KNBC 020629Z AUTO 00000KT 1/2SM FG VV002 07/07 A3034 RMK AO2
T00720072 $





000
SAUS42 KCHS 020634 COR
MTRNBC
SPECI KNBC 020629Z AUTO 00000KT 1/2SM FG VV002 07/07 A3034 RMK AO2
T00720072 $





000
SAUS42 KCHS 020618 COR
MTRNBC
SPECI KNBC 020613Z AUTO 00000KT 3/4SM BR VV002 07/07 A3035 RMK AO2
T00720067 $





000
SAUS42 KCHS 020618 COR
MTRNBC
SPECI KNBC 020613Z AUTO 00000KT 3/4SM BR VV002 07/07 A3035 RMK AO2
T00720067 $





000
SAUS42 KCHS 020601 COR
MTRNBC
METAR KNBC 020556Z AUTO 00000KT 1/2SM FG VV002 07/07 A3035 RMK AO2
SLP278 T00720067 10078 20072 56015 $





000
SAUS42 KCHS 020601 COR
MTRNBC
METAR KNBC 020556Z AUTO 00000KT 1/2SM FG VV002 07/07 A3035 RMK AO2
SLP278 T00720067 10078 20072 56015 $





000
SAUS42 KCHS 020532 COR
MTRNBC
SPECI KNBC 020527Z AUTO 32004KT 1/2SM FG VV002 07/07 A3036 RMK AO2
T00720067 $





000
SAUS42 KCHS 020532 COR
MTRNBC
SPECI KNBC 020527Z AUTO 32004KT 1/2SM FG VV002 07/07 A3036 RMK AO2
T00720067 $





000
SAUS42 KCHS 020501 COR
MTRNBC
METAR KNBC 020456Z AUTO 29003KT 3/4SM BR VV002 07/07 A3036 RMK AO2
SLP282 T00720067 400830044 $





000
SAUS42 KCHS 020446 COR
MTRNBC
SPECI KNBC 020441Z AUTO 30004KT 3/4SM BR VV002 07/07 A3037 RMK AO2
T00720067 $





000
SAUS42 KCHS 020446 COR
MTRNBC
SPECI KNBC 020441Z AUTO 30004KT 3/4SM BR VV002 07/07 A3037 RMK AO2
T00720067 $





000
SAUS42 KCHS 020418
MTRNBC
SPECI KNBC 020417Z 32003KT 1SM BR OVC002 07/07 A3037 RMK AO2
T00720067 $





000
SAUS42 KCHS 020418
MTRNBC
SPECI KNBC 020417Z 32003KT 1SM BR OVC002 07/07 A3037 RMK AO2
T00720067 $





000
SAUS42 KCHS 020401 COR
MTRNBC
METAR KNBC 020356Z 33006KT 4SM BR OVC003 08/07 A3038 RMK AO2 SLP287
T00780067 $





000
SAUS42 KCHS 020301 COR
MTRNBC
METAR KNBC 020256Z 33007KT 6SM BR OVC003 08/07 A3040 RMK AO2 SLP293
T00780067 58001 $





000
SAUS42 KCHS 020201 COR
MTRNBC
METAR KNBC 020156Z 35005KT 6SM BR OVC003 08/07 A3040 RMK AO2 SLP294
T00780067 $





000
SAUS42 KCHS 020156 COR
MTRNBC
SPECI KNBC 020151Z 35006KT 6SM BR OVC003 08/07 A3040 RMK AO2 $





000
SAUS42 KCHS 020156 COR
MTRNBC
SPECI KNBC 020151Z 35006KT 6SM BR OVC003 08/07 A3040 RMK AO2 $





000
SAUS42 KCHS 020114 COR
MTRNBC
SPECI KNBC 020109Z 35005KT 3SM BR OVC002 08/07 A3040 RMK AO2
T00780067 $





000
SAUS42 KCHS 020114 COR
MTRNBC
SPECI KNBC 020109Z 35005KT 3SM BR OVC002 08/07 A3040 RMK AO2
T00780067 $





000
SAUS42 KCHS 020101 COR
MTRNBC
METAR KNBC 020056Z 34005KT 3SM BR OVC003 08/07 A3040 RMK AO2 SLP294
T00780072 $





000
SAUS42 KCHS 020101 COR
MTRNBC
METAR KNBC 020056Z 34005KT 3SM BR OVC003 08/07 A3040 RMK AO2 SLP294
T00780072 $





000
SAUS42 KCHS 020049 COR
MTRNBC
SPECI KNBC 020044Z 35006KT 3SM BR OVC003 08/07 A3040 RMK AO2
T00780067 $





000
SAUS42 KCHS 020049 COR
MTRNBC
SPECI KNBC 020044Z 35006KT 3SM BR OVC003 08/07 A3040 RMK AO2
T00780067 $





000
SAUS42 KCHS 020028 COR
MTRNBC
SPECI KNBC 020023Z 34006KT 2SM BR OVC003 08/07 A3040 RMK AO2
T00780067 $





000
SAUS42 KCHS 020028 COR
MTRNBC
SPECI KNBC 020023Z 34006KT 2SM BR OVC003 08/07 A3040 RMK AO2
T00780067 $





000
SAUS42 KCHS 020020 COR
MTRNBC
SPECI KNBC 020015Z 33005KT 3SM BR OVC003 08/07 A3041 RMK AO2
T00780067 $





000
SAUS42 KCHS 020020 COR
MTRNBC
SPECI KNBC 020015Z 33005KT 3SM BR OVC003 08/07 A3041 RMK AO2
T00780067 $





000
SAUS42 KCHS 020001 COR
MTRNBC
METAR KNBC 012356Z 33005KT 2SM BR OVC003 08/07 A3041 RMK AO2 SLP297
60003 T00780072 10083 20061 52007 $





000
SAUS42 KCHS 020001 COR
MTRNBC
METAR KNBC 012356Z 33005KT 2SM BR OVC003 08/07 A3041 RMK AO2 SLP297
60003 T00780072 10083 20061 52007 $





000
SAUS42 KCHS 012356 COR
MTRNBC
SPECI KNBC 012351Z 34004KT 2 1/2SM BR OVC003 08/07 A3041 RMK AO2 $





000
SAUS42 KCHS 012356 COR
MTRNBC
SPECI KNBC 012351Z 34004KT 2 1/2SM BR OVC003 08/07 A3041 RMK AO2 $





000
SAUS42 KCHS 012301 COR
MTRNBC
METAR KNBC 012256Z 35006KT 5SM BR OVC003 08/07 A3039 RMK AO2 SLP290
T00780072 $





000
SAUS42 KCHS 012301 COR
MTRNBC
METAR KNBC 012256Z 35006KT 5SM BR OVC003 08/07 A3039 RMK AO2 SLP290
T00780072 $





000
SAUS42 KCHS 012214 COR
MTRNBC
SPECI KNBC 012209Z 34005KT 6SM BR OVC003 08/07 A3039 RMK AO2
T00830072 $





000
SAUS42 KCHS 012201 COR
MTRNBC
METAR KNBC 012156Z 01005KT 8SM OVC004 08/07 A3039 RMK AO2 SLP289
T00830072 $





000
SAUS42 KCHS 012101 COR
MTRNBC
METAR KNBC 012056Z 34007KT 5SM BR OVC004 08/07 A3039 RMK AO2 RAE03
SLP290 P0000 60003 T00830072 56020 $





000
SAUS42 KCHS 012101 COR
MTRNBC
METAR KNBC 012056Z 34007KT 5SM BR OVC004 08/07 A3039 RMK AO2 RAE03
SLP290 P0000 60003 T00830072 56020 $





000
SAUS42 KCHS 012032 COR
MTRNBC
SPECI KNBC 012027Z 35005KT 4SM BR OVC004 08/07 A3040 RMK AO2 RAE03
CIG 003V008 P0000 T00830072 $





000
SAUS42 KCHS 012001 COR
MTRNBC
METAR KNBC 011956Z 33005KT 2SM -RA BR OVC004 08/07 A3040 RMK AO2
RAB1858E17B43 SLP295 P0001 T00780067 $





000
SAUS42 KCHS 012001 COR
MTRNBC
METAR KNBC 011956Z 33005KT 2SM -RA BR OVC004 08/07 A3040 RMK AO2
RAB1858E17B43 SLP295 P0001 T00780067 $





000
SAUS42 KCHS 011943 COR
MTRNBC
SPECI KNBC 011938Z 33006KT 1SM BR OVC004 07/06 A3040 RMK AO2
RAB1858E17 FIRST P0000 T00720061 $





000
SAUS42 KCHS 011901 COR
MTRNBC
METAR KNBC 011856Z AUTO 36007KT 6SM BR OVC004 07/06 A3041 RMK AO2
RAE16B37E50 SLP298 P0002 T00720061 $





000
SAUS42 KCHS 011901 COR
MTRNBC
METAR KNBC 011856Z AUTO 36007KT 6SM BR OVC004 07/06 A3041 RMK AO2
RAE16B37E50 SLP298 P0002 T00720061 $





000
SAUS42 KCHS 011852 COR
MTRNBC
SPECI KNBC 011847Z AUTO 34007KT 3SM -RA BR OVC004 07/06 A3042 RMK
AO2 RAE16B37 P0002 T00720061 $





000
SAUS42 KCHS 011852 COR
MTRNBC
SPECI KNBC 011847Z AUTO 34007KT 3SM -RA BR OVC004 07/06 A3042 RMK
AO2 RAE16B37 P0002 T00720061 $





000
SAUS42 KCHS 011844 COR
MTRNBC
SPECI KNBC 011839Z AUTO 35006KT 1 3/4SM -RA BR OVC004 07/06 A3042
RMK AO2 RAE16B37 P0002 T00720056 $





000
SAUS42 KCHS 011844 COR
MTRNBC
SPECI KNBC 011839Z AUTO 35006KT 1 3/4SM -RA BR OVC004 07/06 A3042
RMK AO2 RAE16B37 P0002 T00720056 $





000
SAUS42 KCHS 011820 COR
MTRNBC
SPECI KNBC 011815Z AUTO 35006KT 5SM -RA BR OVC004 07/06 A3044 RMK
AO2 CIG 003V009 P0001 T00670056 $





000
SAUS42 KCHS 011801 COR
MTRNBC
METAR KNBC 011756Z AUTO 36007KT 2SM RA BR OVC004 06/05 A3045 RMK AO2
SLP310 P0007 60014 T00610050 10067 20044 $





000
SAUS42 KCHS 011753 COR
MTRNBC
SPECI KNBC 011748Z AUTO 36007KT 2 1/2SM -RA BR OVC004 06/05 A3045
RMK AO2 P0005 T00610050 $





000
SAUS42 KCHS 011753 COR
MTRNBC
SPECI KNBC 011748Z AUTO 36007KT 2 1/2SM -RA BR OVC004 06/05 A3045
RMK AO2 P0005 T00610050 $





000
SAUS42 KCHS 011745 COR
MTRNBC
SPECI KNBC 011740Z AUTO 01008KT 1 3/4SM -RA BR OVC004 06/05 A3046
RMK AO2 P0005 T00610050 $





000
SAUS42 KCHS 011745 COR
MTRNBC
SPECI KNBC 011740Z AUTO 01008KT 1 3/4SM -RA BR OVC004 06/05 A3046
RMK AO2 P0005 T00610050 $





000
SAUS42 KCHS 011735
MTRNBC
SPECI KNBC 011732Z AUTO 35007KT 3SM RA BR OVC004 06/05 A3046 RMK AO2
P0003 T00610050 $





000
SAUS42 KCHS 011735
MTRNBC
SPECI KNBC 011732Z AUTO 35007KT 3SM RA BR OVC004 06/05 A3046 RMK AO2
P0003 T00610050 $





000
SAUS42 KCHS 011730 COR
MTRNBC
SPECI KNBC 011725Z AUTO 01008KT 2 1/2SM -RA BR OVC004 06/05 A3047
RMK AO2 P0003 T00610050





000
SAUS42 KCHS 011716 COR
MTRNBC
SPECI KNBC 011711Z AUTO 35008KT 2SM RA BR 06/05 A3047 RMK AO2 P0002
T00610050





000
SAUS42 KCHS 011701 COR
MTRNBC
METAR KNBC 011656Z AUTO 34007KT -RA 06/04 A3048 RMK AO2 RAB12E28B54
SLP323 P0001 T00560044





000
SAUS42 KCHS 011701 COR
MTRNBC
METAR KNBC 011656Z AUTO 34007KT -RA 06/04 A3048 RMK AO2 RAB12E28B54
SLP323 P0001 T00560044





000
SAUS42 KCHS 011611 COR
MTRNBC
SPECI KNBC 011606Z AUTO 36009KT 4SM BR OVC004 06/04 A3049 RMK AO2
T00560044 $





000
SAUS42 KCHS 011601 COR
MTRNBC
METAR KNBC 011556Z AUTO 35010KT 2 1/2SM BR OVC004 06/04 A3050 RMK
AO2 RAE40 SLP329 P0001 T00560044 $





000
SAUS42 KCHS 011601 COR
MTRNBC
METAR KNBC 011556Z AUTO 35010KT 2 1/2SM BR OVC004 06/04 A3050 RMK
AO2 RAE40 SLP329 P0001 T00560044 $





000
SAUS42 KCHS 011546 COR
MTRNBC
SPECI KNBC 011541Z AUTO 36009KT 2 1/2SM BR OVC004 05/04 A3051 RMK
AO2 RAE40 P0001 T00500044 $





000
SAUS42 KCHS 011522 COR
MTRNBC
SPECI KNBC 011517Z AUTO 34007KT 3SM -RA BR OVC004 06/04 A3051 RMK
AO2 P0001 T00560044 $





000
SAUS42 KCHS 011513 COR
MTRNBC
SPECI KNBC 011508Z AUTO 36009KT 1 3/4SM -RA BR OVC004 06/04 A3051
RMK AO2 P0001 T00560044 $





000
SAUS42 KCHS 011508 COR
MTRNBC
SPECI KNBC 011503Z AUTO 35009KT 2SM -RA BR OVC005 05/04 A3050 RMK
AO2 P0000 T00500039 $





000
SAUS42 KCHS 011508 COR
MTRNBC
SPECI KNBC 011503Z AUTO 35009KT 2SM -RA BR OVC005 05/04 A3050 RMK
AO2 P0000 T00500039 $





000
SAUS42 KCHS 011501 COR
MTRNBC
METAR KNBC 011456Z AUTO 36008KT 1 1/2SM -RA BR OVC005 05/04 A3051
RMK AO2 RAE30B38 SLP330 P0005 60005 T00500039 51001 $





000
SAUS42 KCHS 011501 COR
MTRNBC
METAR KNBC 011456Z AUTO 36008KT 1 1/2SM -RA BR OVC005 05/04 A3051
RMK AO2 RAE30B38 SLP330 P0005 60005 T00500039 51001 $





000
SAUS42 KCHS 011448 COR
MTRNBC
SPECI KNBC 011443Z AUTO 01007KT 2SM -RA BR OVC005 05/04 A3051 RMK
AO2 RAE30B38 P0004 T00500039 $





000
SAUS42 KCHS 011435
MTRNBC
SPECI KNBC 011434Z AUTO 36008KT 3SM BR OVC005 05/04 A3050 RMK AO2
RAE30 P0004 T00500039 $





000
SAUS42 KCHS 011428 COR
MTRNBC
SPECI KNBC 011423Z AUTO 01008KT 2SM -RA BR OVC005 05/04 A3050 RMK
AO2 P0003 T00500039 $





000
SAUS42 KCHS 011418 COR
MTRNBC
SPECI KNBC 011413Z AUTO 01009KT 1 3/4SM RA BR OVC005 05/03 A3050 RMK
AO2 P0003 T00500033 $





000
SAUS42 KCHS 011418 COR
MTRNBC
SPECI KNBC 011413Z AUTO 01009KT 1 3/4SM RA BR OVC005 05/03 A3050 RMK
AO2 P0003 T00500033 $





000
SAUS42 KCHS 011409 COR
MTRNBC
SPECI KNBC 011404Z AUTO 01007KT 1 3/4SM -RA BR OVC006 05/04 A3051
RMK AO2 P0002 T00500039 $





000
SAUS42 KCHS 011409 COR
MTRNBC
SPECI KNBC 011404Z AUTO 01007KT 1 3/4SM -RA BR OVC006 05/04 A3051
RMK AO2 P0002 T00500039 $





000
SAUS42 KCHS 011358
MTRNBC
METAR KNBC 011356Z AUTO 01010KT 5SM -RA BR OVC006 05/03 A3051 RMK
AO2 RAB56 SLP330 P0000 T00500033 $





000
SAUS42 KCHS 011358
MTRNBC
METAR KNBC 011356Z AUTO 01010KT 5SM -RA BR OVC006 05/03 A3051 RMK
AO2 RAB56 SLP330 P0000 T00500033 $





000
SAUS42 KCHS 011320 COR
MTRNBC
SPECI KNBC 011315Z AUTO 36010KT 4SM BR OVC005 04/03 A3051 RMK AO2
T00440033 $





000
SAUS42 KCHS 011320 COR
MTRNBC
SPECI KNBC 011315Z AUTO 36010KT 4SM BR OVC005 04/03 A3051 RMK AO2
T00440033 $





000
SAUS42 KCHS 011301 COR
MTRNBC
METAR KNBC 011256Z AUTO 36009KT 5SM BR OVC006 05/03 A3050 RMK AO2
RAB1158E08 CIG 005V010 SLP329 P0000 T00500033 $





000
SAUS42 KCHS 011301 COR
MTRNBC
METAR KNBC 011256Z AUTO 36009KT 5SM BR OVC006 05/03 A3050 RMK AO2
RAB1158E08 CIG 005V010 SLP329 P0000 T00500033 $





000
SAUS42 KCHS 011201 COR
MTRNBC
METAR KNBC 011156Z AUTO 35007KT 6SM BR OVC007 05/03 A3049 RMK AO2
RAB02E36 SLP326 P0000 60003 70016 T00500033 10061 20050 53008 $





000
SAUS42 KCHS 011119 COR
MTRNBC
SPECI KNBC 011114Z AUTO 01006KT 5SM -RA BR OVC008 05/04 A3049 RMK
AO2 RAB02 CIG 006V011 P0000 T00500039 $





000
SAUS42 KCHS 011101 COR
MTRNBC
METAR KNBC 011056Z AUTO 02007KT 8SM OVC010 05/03 A3049 RMK AO2 CIG
007V012 SLP324 T00500033 $





000
SAUS42 KCHS 011001 COR
MTRNBC
METAR KNBC 010956Z AUTO 03009KT 10SM OVC012 05/03 A3047 RMK AO2
SLP318 T00500033 $





000
SAUS42 KCHS 011001 COR
MTRNBC
METAR KNBC 010956Z AUTO 03009KT 10SM OVC012 05/03 A3047 RMK AO2
SLP318 T00500033 $





000
SAUS42 KCHS 010900 COR
MTRNBC
METAR KNBC 010856Z AUTO 03009KT 10SM OVC013 05/03 A3047 RMK AO2
SLP318 60003 T00500033 58019 $





000
SAUS42 KCHS 010900 COR
MTRNBC
METAR KNBC 010856Z AUTO 03009KT 10SM OVC013 05/03 A3047 RMK AO2
SLP318 60003 T00500033 58019 $





000
SAUS42 KCHS 010801 COR
MTRNBC
METAR KNBC 010756Z AUTO 04009KT 10SM OVC014 06/03 A3050 RMK AO2
RAE38 SLP327 P0002 T00560033 $





000
SAUS42 KCHS 010801 COR
MTRNBC
METAR KNBC 010756Z AUTO 04009KT 10SM OVC014 06/03 A3050 RMK AO2
RAE38 SLP327 P0002 T00560033 $





000
SAUS42 KCHS 010741 COR
MTRNBC
SPECI KNBC 010736Z AUTO 02010KT 10SM -RA OVC014 06/03 A3050 RMK AO2
P0002 T00560033 $





000
SAUS42 KCHS 010701 COR
MTRNBC
METAR KNBC 010656Z AUTO 02010KT 10SM -RA OVC015 06/03 A3051 RMK AO2
RAB30 SLP332 P0001 T00560033 $





000
SAUS42 KCHS 010701 COR
MTRNBC
METAR KNBC 010656Z AUTO 02010KT 10SM -RA OVC015 06/03 A3051 RMK AO2
RAB30 SLP332 P0001 T00560033 $





000
SAUS42 KCHS 010601 COR
MTRNBC
METAR KNBC 010556Z AUTO 02010KT 10SM OVC017 06/03 A3053 RMK AO2
RAE53 SLP337 P0003 60005 T00610033 10083 20061 58012 $





000
SAUS42 KCHS 010601 COR
MTRNBC
METAR KNBC 010556Z AUTO 02010KT 10SM OVC017 06/03 A3053 RMK AO2
RAE53 SLP337 P0003 60005 T00610033 10083 20061 58012 $





000
SAUS42 KCHS 010501 COR
MTRNBC
METAR KNBC 010456Z AUTO 05008KT 7SM -RA OVC018 07/03 A3055 RMK AO2
RAB40 SLP345 P0001 T00670028 401110039 $





000
SAUS42 KCHS 010501 COR
MTRNBC
METAR KNBC 010456Z AUTO 05008KT 7SM -RA OVC018 07/03 A3055 RMK AO2
RAB40 SLP345 P0001 T00670028 401110039 $





000
SAUS42 KCHS 010401 COR
MTRNBC
METAR KNBC 010356Z AUTO 05005KT 10SM OVC018 07/03 A3055 RMK AO2
RAE12 SLP346 P0000 T00720028 $





000
SAUS42 KCHS 010401 COR
MTRNBC
METAR KNBC 010356Z AUTO 05005KT 10SM OVC018 07/03 A3055 RMK AO2
RAE12 SLP346 P0000 T00720028 $





000
SAUS42 KCHS 010322 COR
MTRNBC
SPECI KNBC 010315Z AUTO 04009KT 10SM BKN019 OVC055 07/03 A3056 RMK
AO2 RAE12 P0000 T00720033 $





000
SAUS42 KCHS 010322 COR
MTRNBC
SPECI KNBC 010315Z AUTO 04009KT 10SM BKN019 OVC055 07/03 A3056 RMK
AO2 RAE12 P0000 T00720033 $





000
SAUS42 KCHS 010301 COR
MTRNBC
METAR KNBC 010256Z AUTO 05008KT 10SM -RA FEW020 OVC055 07/03 A3056
RMK AO2 RAB04 SLP350 P0001 60001 T00720028 51005 $





000
SAUS42 KCHS 010301 COR
MTRNBC
METAR KNBC 010256Z AUTO 05008KT 10SM -RA FEW020 OVC055 07/03 A3056
RMK AO2 RAB04 SLP350 P0001 60001 T00720028 51005 $





000
SAUS42 KCHS 010201 COR
MTRNBC
METAR KNBC 010156Z AUTO 04011KT 10SM OVC060 08/02 A3056 RMK AO2
SLP349 T00830022 $





000
SAUS42 KCHS 010101 COR
MTRNBC
METAR KNBC 010056Z AUTO 06005KT 10SM OVC060 08/03 A3055 RMK AO2
RAE2358 SLP347 P0000 T00780028 $





000
SAUS42 KCHS 010101 COR
MTRNBC
METAR KNBC 010056Z AUTO 06005KT 10SM OVC060 08/03 A3055 RMK AO2
RAE2358 SLP347 P0000 T00780028 $





000
SAUS42 KCHS 282301 COR
MTRNBC
METAR KNBC 282256Z AUTO 04012KT 6SM -RA OVC060 07/03 A3054 RMK AO2
RAE20B40 SLP343 P0002 T00720028 $





000
SAUS42 KCHS 282301 COR
MTRNBC
METAR KNBC 282256Z AUTO 04012KT 6SM -RA OVC060 07/03 A3054 RMK AO2
RAE20B40 SLP343 P0002 T00720028 $





000
SAUS42 KCHS 282213 COR
MTRNBC
SPECI KNBC 282208Z AUTO 05005KT 7SM -RA FEW023 BKN050 OVC060 07/05
A3055 RMK AO2 P0000 T00720050 $





000
SAUS42 KCHS 282201 COR
MTRNBC
METAR KNBC 282156Z AUTO 04003KT 8SM -RA BKN024 BKN035 OVC050 08/04
A3056 RMK AO2 RAB02 SLP348 P0002 T00780044 $





000
SAUS42 KCHS 282201 COR
MTRNBC
METAR KNBC 282156Z AUTO 04003KT 8SM -RA BKN024 BKN035 OVC050 08/04
A3056 RMK AO2 RAB02 SLP348 P0002 T00780044 $





000
SAUS42 KCHS 282115 COR
MTRNBC
SPECI KNBC 282110Z AUTO 03005KT 10SM -RA BKN025 OVC060 08/04 A3056
RMK AO2 RAB02 P0000 T00780039





000
SAUS42 KCHS 282115 COR
MTRNBC
SPECI KNBC 282110Z AUTO 03005KT 10SM -RA BKN025 OVC060 08/04 A3056
RMK AO2 RAB02 P0000 T00780039





000
SAUS42 KCHS 282101 COR
MTRNBC
METAR KNBC 282056Z AUTO 03007KT 10SM FEW025 FEW037 OVC060 08/04
A3055 RMK AO2 RAE32 SLP346 P0002 60004 T00780039 55002





000
SAUS42 KCHS 282001 COR
MTRNBC
METAR KNBC 281956Z AUTO 03008KT 8SM -RA SCT026 BKN048 OVC065 08/03
A3054 RMK AO2 RAB21 SLP343 P0002 T00780033





000
SAUS42 KCHS 281901 COR
MTRNBC
METAR KNBC 281856Z AUTO 03008KT 10SM OVC029 10/00 A3055 RMK AO2
SLP346 T01000000





000
SAUS42 KCHS 281901 COR
MTRNBC
METAR KNBC 281856Z AUTO 03008KT 10SM OVC029 10/00 A3055 RMK AO2
SLP346 T01000000





000
SAUS42 KCHS 281818 COR
MTRNBC
SPECI KNBC 281813Z AUTO 04008KT 10SM BKN026 OVC070 11/M01 A3056 RMK
AO2 T01061011





000
SAUS42 KCHS 281818 COR
MTRNBC
SPECI KNBC 281813Z AUTO 04008KT 10SM BKN026 OVC070 11/M01 A3056 RMK
AO2 T01061011





000
SAUS42 KCHS 281801 COR
MTRNBC
METAR KNBC 281756Z AUTO 04012KT 10SM SCT026 OVC070 11/M01 A3056 RMK
AO2 SLP348 T01061011 10111 20056 58013





000
SAUS42 KCHS 281801 COR
MTRNBC
METAR KNBC 281756Z AUTO 04012KT 10SM SCT026 OVC070 11/M01 A3056 RMK
AO2 SLP348 T01061011 10111 20056 58013





000
SAUS42 KCHS 281753 COR
MTRNBC
SPECI KNBC 281748Z AUTO 05009KT 10SM BKN026 BKN060 OVC070 11/M01
A3056 RMK AO2 T01061011





000
SAUS42 KCHS 281753 COR
MTRNBC
SPECI KNBC 281748Z AUTO 05009KT 10SM BKN026 BKN060 OVC070 11/M01
A3056 RMK AO2 T01061011





000
SAUS42 KCHS 281701 COR
MTRNBC
METAR KNBC 281656Z AUTO 03014KT 10SM SCT027 OVC060 09/M02 A3058 RMK
AO2 SLP356 T00941017





000
SAUS42 KCHS 281701 COR
MTRNBC
METAR KNBC 281656Z AUTO 03014KT 10SM SCT027 OVC060 09/M02 A3058 RMK
AO2 SLP356 T00941017





000
SAUS42 KCHS 281648 COR
MTRNBC
SPECI KNBC 281643Z AUTO 04013KT 10SM SCT027 OVC060 10/M02 A3059 RMK
AO2 T01001017





000
SAUS42 KCHS 281648 COR
MTRNBC
SPECI KNBC 281643Z AUTO 04013KT 10SM SCT027 OVC060 10/M02 A3059 RMK
AO2 T01001017





000
SAUS42 KCHS 281635 COR
MTRNBC
SPECI KNBC 281631Z AUTO 03014KT 10SM BKN027 OVC060 09/M02 A3059 RMK
AO2 T00941017





000
SAUS42 KCHS 281635 COR
MTRNBC
SPECI KNBC 281631Z AUTO 03014KT 10SM BKN027 OVC060 09/M02 A3059 RMK
AO2 T00941017





000
SAUS42 KCHS 281602 COR
MTRNBC
METAR KNBC 281556Z AUTO 05012KT 10SM FEW029 OVC060 09/M02 A3059 RMK
AO2 SLP358 T00941017





000
SAUS42 KCHS 281602 COR
MTRNBC
METAR KNBC 281556Z AUTO 05012KT 10SM FEW029 OVC060 09/M02 A3059 RMK
AO2 SLP358 T00941017





000
SAUS42 KCHS 281501 COR
MTRNBC
METAR KNBC 281456Z AUTO 03012KT 10SM OVC060 07/M01 A3060 RMK AO2
SLP362 T00671006 51030





000
SAUS42 KCHS 281501 COR
MTRNBC
METAR KNBC 281456Z AUTO 03012KT 10SM OVC060 07/M01 A3060 RMK AO2
SLP362 T00671006 51030





000
SAUS42 KCHS 281401 COR
MTRNBC
METAR KNBC 281356Z AUTO 04013KT 10SM SCT032 OVC060 06/01 A3058 RMK
AO2 SLP356 T00610006





000
SAUS42 KCHS 281401 COR
MTRNBC
METAR KNBC 281356Z AUTO 04013KT 10SM SCT032 OVC060 06/01 A3058 RMK
AO2 SLP356 T00610006





000
SAUS42 KCHS 281301 COR
MTRNBC
METAR KNBC 281256Z AUTO 03016G20KT 10SM OVC060 06/03 A3055 RMK AO2
SLP346 T00560028





000
SAUS42 KCHS 281301 COR
MTRNBC
METAR KNBC 281256Z AUTO 03016G20KT 10SM OVC060 06/03 A3055 RMK AO2
SLP346 T00560028





000
SAUS42 KCHS 281200 COR
MTRNBC
METAR KNBC 281156Z AUTO 04013KT 10SM OVC060 06/03 A3051 RMK AO2
SLP332 T00560028 10061 20044 53015





000
SAUS42 KCHS 281200 COR
MTRNBC
METAR KNBC 281156Z AUTO 04013KT 10SM OVC060 06/03 A3051 RMK AO2
SLP332 T00560028 10061 20044 53015





    US Dept of Commerce
    National Oceanic and Atmospheric Administration
    National Weather Service
    1325 East West Highway
    Silver Spring, MD 20910
    Page Author: NWS Internet Services Team
Disclaimer
Information Quality
Credits
Glossary
Privacy Policy
Freedom of Information Act (FOIA)
About Us
Career Opportunities